Time;durP1;ratioP1;P1;durP2;ratioP2;P2;SDS_P1;SDS_P2;PMS_P1;PMS_P2;Temp;Humidity;BMP_temperature;BMP_pressure;BME280_temperature;BME280_humidity;BME280_pressure;Samples;Min_cycle;Max_cycle;Signal;HPM_P1;HPM_P2
2023/09/05 00:00:10;;;;;;;3.85;2.05;;;20.60;97.90;;;;;;5073702;28;20044;-81
2023/09/05 00:02:48;;;;;;;4.10;2.33;;;20.50;98.10;;;;;;5056172;28;20035;-81
2023/09/05 00:05:15;;;;;;;6.35;2.60;;;20.50;98.10;;;;;;5056241;28;20111;-80
2023/09/05 00:07:41;;;;;;;6.82;2.67;;;20.50;98.00;;;;;;5073900;28;20020;-80
2023/09/05 00:10:12;;;;;;;3.90;2.38;;;20.50;98.10;;;;;;5055605;28;20166;-81
2023/09/05 00:12:42;;;;;;;3.65;2.78;;;20.40;98.10;;;;;;5056137;28;20052;-81
2023/09/05 00:15:10;;;;;;;3.40;2.30;;;20.40;98.20;;;;;;5055511;28;20025;-81
2023/09/05 00:17:37;;;;;;;3.85;2.50;;;20.40;98.30;;;;;;5055950;28;20097;-80
2023/09/05 00:20:06;;;;;;;4.22;2.72;;;20.40;98.00;;;;;;5055395;28;20024;-81
2023/09/05 00:22:32;;;;;;;3.20;2.30;;;20.40;98.00;;;;;;5073893;28;20461;-81
2023/09/05 00:24:58;;;;;;;2.97;2.28;;;20.40;98.20;;;;;;5073160;28;20020;-80
2023/09/05 00:27:24;;;;;;;3.20;2.35;;;20.30;98.00;;;;;;5055815;28;20112;-80
2023/09/05 00:29:49;;;;;;;3.40;2.30;;;20.30;98.10;;;;;;5072769;28;20535;-81
2023/09/05 00:32:16;;;;;;;4.00;2.42;;;20.30;98.10;;;;;;5055228;28;20032;-80
2023/09/05 00:34:42;;;;;;;4.45;2.30;;;20.30;98.20;;;;;;5054981;28;20127;-81
2023/09/05 00:37:09;;;;;;;4.80;2.47;;;20.20;98.20;;;;;;5055106;28;20056;-81
2023/09/05 00:39:35;;;;;;;2.53;2.17;;;20.10;98.40;;;;;;5072847;28;20029;-80
2023/09/05 00:42:05;;;;;;;3.17;2.17;;;20.10;98.30;;;;;;5055293;28;20032;-81
2023/09/05 00:44:31;;;;;;;3.60;2.50;;;20.10;98.50;;;;;;5055491;28;20032;-81
2023/09/05 00:46:59;;;;;;;3.47;2.40;;;20.10;98.50;;;;;;5072749;28;20026;-81
2023/09/05 00:49:28;;;;;;;4.68;2.60;;;20.00;98.50;;;;;;5055105;28;20489;-81
2023/09/05 00:51:59;;;;;;;3.28;2.15;;;20.00;98.40;;;;;;5074835;28;20032;-81
2023/09/05 00:54:25;;;;;;;3.47;2.47;;;20.00;98.50;;;;;;5058861;28;20043;-81
2023/09/05 00:56:53;;;;;;;4.10;2.10;;;20.00;98.50;;;;;;5076628;28;20024;-82
2023/09/05 00:59:19;;;;;;;3.05;2.20;;;20.00;98.50;;;;;;5059062;28;20021;-80
2023/09/05 01:01:45;;;;;;;5.07;2.10;;;20.00;98.60;;;;;;5076463;28;20020;-78
2023/09/05 01:04:13;;;;;;;3.35;2.47;;;20.00;98.70;;;;;;5074747;28;20119;-78
2023/09/05 01:06:58;;;;;;;3.42;2.55;;;20.00;98.90;;;;;;5075334;28;20082;-78
2023/09/05 01:09:44;;;;;;;4.30;2.53;;;19.90;99.00;;;;;;5076669;28;20021;-81
2023/09/05 01:12:10;;;;;;;3.83;2.58;;;19.80;99.00;;;;;;5058421;28;20165;-81
2023/09/05 01:14:36;;;;;;;3.75;2.35;;;19.80;99.10;;;;;;5076374;28;20084;-80
2023/09/05 01:17:01;;;;;;;4.43;2.13;;;19.70;99.20;;;;;;5074973;28;20381;-81
2023/09/05 01:19:29;;;;;;;3.17;2.50;;;19.70;99.30;;;;;;5075534;28;20025;-80
2023/09/05 01:22:15;;;;;;;3.55;2.45;;;19.60;99.50;;;;;;5075911;28;20066;-82
2023/09/05 01:24:41;;;;;;;4.32;2.85;;;19.60;99.60;;;;;;5058571;28;20025;-81
2023/09/05 01:27:08;;;;;;;3.95;2.45;;;19.50;99.40;;;;;;5074743;28;20362;-81
2023/09/05 01:29:35;;;;;;;5.50;2.40;;;19.50;99.50;;;;;;5058465;28;20031;-81
2023/09/05 01:32:03;;;;;;;3.60;2.20;;;19.40;99.50;;;;;;5057852;28;20029;-81
2023/09/05 01:34:29;;;;;;;3.75;2.45;;;19.30;99.70;;;;;;5058483;28;20086;-79
2023/09/05 01:36:55;;;;;;;3.58;2.20;;;19.30;99.80;;;;;;5075269;28;20024;-81
2023/09/05 01:39:21;;;;;;;4.25;2.45;;;19.20;99.90;;;;;;5074938;28;20123;-81
2023/09/05 01:41:48;;;;;;;5.75;2.60;;;19.20;99.90;;;;;;5058112;28;20047;-80
2023/09/05 01:44:14;;;;;;;3.38;1.90;;;19.10;99.90;;;;;;5057464;28;20037;-81
2023/09/05 01:46:39;;;;;;;5.45;2.10;;;19.10;99.90;;;;;;5058156;28;20461;-81
2023/09/05 01:49:05;;;;;;;4.03;2.20;;;19.10;99.90;;;;;;5075113;28;20123;-81
2023/09/05 01:51:31;;;;;;;4.60;2.25;;;19.10;99.90;;;;;;5075644;28;20024;-81
2023/09/05 01:53:56;;;;;;;4.70;2.53;;;19.10;99.80;;;;;;5075413;28;20442;-81
2023/09/05 01:56:22;;;;;;;4.43;2.40;;;19.00;99.90;;;;;;5074721;28;20491;-80
2023/09/05 01:58:48;;;;;;;3.17;2.33;;;19.00;99.90;;;;;;5074982;28;20377;-81
2023/09/05 02:01:13;;;;;;;3.55;2.20;;;19.00;99.90;;;;;;5074392;28;20028;-80
2023/09/05 02:03:39;;;;;;;2.45;2.00;;;19.00;99.90;;;;;;5073799;28;20366;-81
2023/09/05 02:06:04;;;;;;;3.78;2.17;;;18.90;99.90;;;;;;5057365;28;20031;-81
2023/09/05 02:08:30;;;;;;;4.75;2.40;;;18.90;99.80;;;;;;5074587;28;20540;-81
2023/09/05 02:10:55;;;;;;;3.30;2.40;;;18.90;99.90;;;;;;5074773;28;20031;-82
2023/09/05 02:13:21;;;;;;;4.43;2.47;;;18.90;99.90;;;;;;5074949;28;20083;-81
2023/09/05 02:15:47;;;;;;;4.32;2.35;;;18.90;99.80;;;;;;5074042;28;20024;-81
2023/09/05 02:18:12;;;;;;;6.38;2.70;;;18.90;99.70;;;;;;5075097;28;20029;-81
2023/09/05 02:20:39;;;;;;;3.45;2.22;;;18.90;99.70;;;;;;5075447;28;20476;-81
2023/09/05 02:23:04;;;;;;;3.33;2.28;;;18.90;99.70;;;;;;5074955;28;20106;-82
2023/09/05 02:25:30;;;;;;;2.80;1.90;;;18.90;99.60;;;;;;5073713;28;20033;-81
2023/09/05 02:27:56;;;;;;;6.07;2.50;;;18.90;99.50;;;;;;5073792;28;20032;-81
2023/09/05 02:30:21;;;;;;;3.78;2.40;;;18.90;99.60;;;;;;5075187;28;20031;-80
2023/09/05 02:32:54;;;;;;;2.92;2.00;;;18.90;99.70;;;;;;5073721;28;20047;-81
2023/09/05 02:35:24;;;;;;;4.70;2.38;;;18.90;99.90;;;;;;5056831;28;20044;-81
2023/09/05 02:37:55;;;;;;;2.47;1.98;;;18.90;99.60;;;;;;5056997;28;20029;-81
2023/09/05 02:40:21;;;;;;;3.33;2.17;;;18.80;99.60;;;;;;5074992;28;20036;-81
2023/09/05 02:42:47;;;;;;;4.63;2.38;;;18.90;99.40;;;;;;5073482;28;20477;-81
2023/09/05 02:45:13;;;;;;;4.03;2.15;;;18.80;99.80;;;;;;5073128;28;20069;-81
2023/09/05 02:47:40;;;;;;;2.83;2.10;;;18.80;99.80;;;;;;5073636;28;20024;-81
2023/09/05 02:50:07;;;;;;;3.08;2.15;;;18.80;99.80;;;;;;5056263;28;20068;-82
2023/09/05 02:52:33;;;;;;;3.58;2.38;;;18.80;99.60;;;;;;5056951;28;20461;-81
2023/09/05 02:54:59;;;;;;;4.72;2.35;;;18.80;99.70;;;;;;5074051;28;20040;-81
2023/09/05 02:57:26;;;;;;;5.20;2.17;;;18.70;99.80;;;;;;5073809;28;20025;-81
2023/09/05 02:59:52;;;;;;;3.60;2.13;;;18.70;99.80;;;;;;5074507;28;20029;-81
2023/09/05 03:02:18;;;;;;;3.85;2.35;;;18.70;99.80;;;;;;5056392;28;20029;-81
2023/09/05 03:04:44;;;;;;;3.25;2.40;;;18.70;99.90;;;;;;5074643;28;20093;-81
2023/09/05 03:07:09;;;;;;;3.40;1.85;;;18.60;99.90;;;;;;5073193;28;20166;-81
2023/09/05 03:09:35;;;;;;;2.90;2.00;;;18.50;99.90;;;;;;5073742;28;20035;-81
2023/09/05 03:12:01;;;;;;;4.18;2.30;;;18.50;99.90;;;;;;5056402;28;20093;-81
2023/09/05 03:14:27;;;;;;;3.00;1.85;;;18.50;99.90;;;;;;5074065;28;20525;-81
2023/09/05 03:16:52;;;;;;;3.15;2.03;;;18.50;99.90;;;;;;5073211;28;20368;-81
2023/09/05 03:19:21;;;;;;;5.72;2.33;;;18.50;99.90;;;;;;5072923;28;20021;-82
2023/09/05 03:21:47;;;;;;;3.42;2.28;;;18.50;99.90;;;;;;5073512;28;20024;-81
2023/09/05 03:24:18;;;;;;;2.60;2.10;;;18.50;99.90;;;;;;5072899;28;20039;-81
2023/09/05 03:26:46;;;;;;;4.03;2.10;;;18.50;99.90;;;;;;5074398;28;20027;-81
2023/09/05 03:29:13;;;;;;;4.60;2.13;;;18.40;99.90;;;;;;5073720;28;20035;-81
2023/09/05 03:31:39;;;;;;;4.50;2.90;;;18.40;99.90;;;;;;5072458;28;20024;-81
2023/09/05 03:34:05;;;;;;;5.65;2.38;;;18.30;99.90;;;;;;5055864;28;20038;-81
2023/09/05 03:36:32;;;;;;;3.60;2.35;;;18.40;99.90;;;;;;5074039;28;20039;-81
2023/09/05 03:38:58;;;;;;;5.97;2.30;;;18.40;99.90;;;;;;5072522;28;20035;-86
2023/09/05 03:41:24;;;;;;;5.53;2.30;;;18.40;99.90;;;;;;5073995;28;20100;-80
2023/09/05 03:43:50;;;;;;;3.08;1.73;;;18.40;99.90;;;;;;5074101;28;20036;-80
2023/09/05 03:46:15;;;;;;;2.53;2.10;;;18.30;99.90;;;;;;5073649;28;20020;-81
2023/09/05 03:48:41;;;;;;;2.90;2.13;;;18.30;99.90;;;;;;5073918;28;20060;-81
2023/09/05 03:51:07;;;;;;;5.43;2.40;;;18.30;99.90;;;;;;5072425;28;20042;-81
2023/09/05 03:53:33;;;;;;;2.85;1.90;;;18.30;99.90;;;;;;5072903;28;20028;-79
2023/09/05 03:55:58;;;;;;;3.85;2.20;;;18.30;99.90;;;;;;5073579;28;20024;-87
2023/09/05 03:58:24;;;;;;;3.47;1.95;;;18.20;99.90;;;;;;5072026;28;20028;-80
2023/09/05 04:00:49;;;;;;;2.92;1.92;;;18.20;99.90;;;;;;5072450;28;20029;-80
2023/09/05 04:03:16;;;;;;;3.58;2.28;;;18.20;99.90;;;;;;5071624;28;20036;-81
2023/09/05 04:05:41;;;;;;;4.10;2.30;;;18.20;99.90;;;;;;5072481;28;20139;-80
2023/09/05 04:08:08;;;;;;;4.13;2.00;;;18.20;99.90;;;;;;5073049;28;20501;-81
2023/09/05 04:10:34;;;;;;;3.38;1.90;;;18.10;99.90;;;;;;5055928;28;20119;-80
2023/09/05 04:13:00;;;;;;;3.83;1.75;;;18.10;99.90;;;;;;5055590;28;20063;-84
2023/09/05 04:15:26;;;;;;;2.65;1.90;;;18.10;99.90;;;;;;5055892;28;20025;-81
2023/09/05 04:17:51;;;;;;;3.25;1.88;;;18.10;99.90;;;;;;5072504;28;20389;-80
2023/09/05 04:20:18;;;;;;;2.78;1.88;;;18.00;99.90;;;;;;5072219;28;20048;-81
2023/09/05 04:22:44;;;;;;;3.80;1.98;;;18.00;99.90;;;;;;5055763;28;20025;-80
2023/09/05 04:25:10;;;;;;;2.58;1.98;;;18.00;99.90;;;;;;5055429;28;20032;-80
2023/09/05 04:27:36;;;;;;;2.63;1.95;;;18.00;99.90;;;;;;5075771;28;20016;-80
2023/09/05 04:30:03;;;;;;;3.47;2.00;;;18.00;99.90;;;;;;5076309;28;20025;-82
2023/09/05 04:32:30;;;;;;;5.28;2.15;;;18.00;99.90;;;;;;5076627;28;20020;-80
2023/09/05 04:34:57;;;;;;;2.03;1.67;;;17.90;99.90;;;;;;5077522;28;20115;-81
2023/09/05 04:37:24;;;;;;;4.35;1.98;;;17.90;99.90;;;;;;5059286;28;20028;-80
2023/09/05 04:39:49;;;;;;;3.60;1.80;;;17.90;99.90;;;;;;5076958;28;20109;-81
2023/09/05 04:42:15;;;;;;;6.45;2.40;;;17.90;99.90;;;;;;5075886;28;20063;-81
2023/09/05 04:44:41;;;;;;;2.75;1.95;;;17.90;99.90;;;;;;5077373;28;20477;-80
2023/09/05 04:47:20;;;;;;;3.72;2.10;;;18.00;99.90;;;;;;5058797;28;20025;-81
2023/09/05 04:49:50;;;;;;;3.15;1.90;;;18.00;99.90;;;;;;5059174;28;20048;-80
2023/09/05 04:52:16;;;;;;;3.17;1.77;;;18.00;99.90;;;;;;5058238;28;20031;-81
2023/09/05 04:54:42;;;;;;;4.18;2.15;;;18.00;99.90;;;;;;5059326;28;20465;-80
2023/09/05 04:57:10;;;;;;;3.53;2.35;;;18.00;99.90;;;;;;5058729;28;20120;-81
2023/09/05 04:59:37;;;;;;;5.18;2.03;;;18.00;99.90;;;;;;5076298;28;20025;-81
2023/09/05 05:02:03;;;;;;;4.07;1.80;;;18.00;99.90;;;;;;5058585;28;20362;-87
2023/09/05 05:04:29;;;;;;;3.83;1.85;;;18.00;99.90;;;;;;5075126;28;20116;-80
2023/09/05 05:06:54;;;;;;;3.00;1.92;;;18.00;99.90;;;;;;5075424;28;20127;-81
2023/09/05 05:09:20;;;;;;;2.80;2.03;;;17.90;99.90;;;;;;5058418;28;20029;-81
2023/09/05 05:11:45;;;;;;;4.38;2.38;;;17.90;99.90;;;;;;5075589;28;20147;-81
2023/09/05 05:14:11;;;;;;;3.25;2.17;;;17.90;99.90;;;;;;5076235;28;20040;-81
2023/09/05 05:16:37;;;;;;;3.25;1.90;;;18.00;99.90;;;;;;5076562;28;20025;-81
2023/09/05 05:19:03;;;;;;;3.75;1.77;;;18.00;99.90;;;;;;5076416;28;20032;-85
2023/09/05 05:21:28;;;;;;;3.88;2.10;;;17.90;99.90;;;;;;5076149;28;20028;-81
2023/09/05 05:23:55;;;;;;;4.10;2.10;;;17.90;99.90;;;;;;5074865;28;20036;-81
2023/09/05 05:26:20;;;;;;;4.45;1.80;;;17.90;99.90;;;;;;5074889;28;20074;-81
2023/09/05 05:28:46;;;;;;;3.97;2.38;;;17.90;99.90;;;;;;5075226;28;20024;-81
2023/09/05 05:31:13;;;;;;;4.15;2.25;;;17.90;99.90;;;;;;5058269;28;20052;-82
2023/09/05 05:33:39;;;;;;;5.85;2.83;;;17.90;99.90;;;;;;5058465;28;20028;-81
2023/09/05 05:36:05;;;;;;;5.00;2.45;;;17.90;99.90;;;;;;5074733;28;20032;-85
2023/09/05 05:38:30;;;;;;;8.18;3.80;;;17.90;99.90;;;;;;5058095;28;20485;-81
2023/09/05 05:40:57;;;;;;;8.15;4.00;;;18.00;99.90;;;;;;5076234;28;20136;-81
2023/09/05 05:43:24;;;;;;;9.05;3.58;;;18.00;99.90;;;;;;5074986;28;20611;-81
2023/09/05 05:45:51;;;;;;;13.43;4.68;;;18.00;99.90;;;;;;5058166;28;20518;-80
2023/09/05 05:48:17;;;;;;;7.03;3.33;;;18.00;99.90;;;;;;5075396;28;20051;-80
2023/09/05 05:50:43;;;;;;;5.93;2.80;;;18.00;99.90;;;;;;5075552;28;20133;-81
2023/09/05 05:53:08;;;;;;;3.30;2.03;;;18.00;99.90;;;;;;5075400;28;20584;-81
2023/09/05 05:55:34;;;;;;;2.85;1.45;;;18.10;99.90;;;;;;5074483;28;20028;-81
2023/09/05 05:58:00;;;;;;;4.15;1.92;;;18.10;99.90;;;;;;5074503;28;20502;-80
2023/09/05 06:00:27;;;;;;;3.05;1.70;;;18.20;99.90;;;;;;5073958;28;20021;-81
2023/09/05 06:02:52;;;;;;;3.03;2.03;;;18.10;99.90;;;;;;5075654;28;20043;-80
2023/09/05 06:05:18;;;;;;;3.85;1.92;;;18.10;99.90;;;;;;5057653;28;20024;-81
2023/09/05 06:07:44;;;;;;;3.97;1.80;;;18.10;99.90;;;;;;5057910;28;20025;-80
2023/09/05 06:10:09;;;;;;;2.08;1.75;;;18.10;99.90;;;;;;5057221;28;20033;-81
2023/09/05 06:12:35;;;;;;;3.38;1.80;;;18.10;99.90;;;;;;5057892;28;20024;-82
2023/09/05 06:15:01;;;;;;;4.25;1.92;;;18.10;99.90;;;;;;5075436;28;20449;-81
2023/09/05 06:17:26;;;;;;;3.38;1.80;;;18.10;99.90;;;;;;5057425;28;20481;-82
2023/09/05 06:19:52;;;;;;;3.40;1.67;;;18.10;99.90;;;;;;5057794;28;20094;-81
2023/09/05 06:22:18;;;;;;;2.58;1.58;;;18.20;99.90;;;;;;5057243;28;20020;-82
2023/09/05 06:24:43;;;;;;;2.10;1.60;;;18.20;99.90;;;;;;5057746;28;20028;-81
2023/09/05 06:27:10;;;;;;;2.85;1.77;;;18.20;99.90;;;;;;5074655;28;20024;-83
2023/09/05 06:29:36;;;;;;;5.10;2.33;;;18.30;99.90;;;;;;5074791;28;20022;-82
2023/09/05 06:32:01;;;;;;;2.83;1.85;;;18.30;99.90;;;;;;5057073;28;20362;-81
2023/09/05 06:34:27;;;;;;;2.95;1.73;;;18.30;99.90;;;;;;5056781;28;20624;-81
2023/09/05 06:36:53;;;;;;;3.70;1.60;;;18.40;99.90;;;;;;5057087;28;20103;-81
2023/09/05 06:39:19;;;;;;;4.32;1.40;;;18.40;99.90;;;;;;5056420;28;20024;-81
2023/09/05 06:41:44;;;;;;;3.75;1.70;;;18.40;99.90;;;;;;5074714;28;20112;-81
2023/09/05 06:44:10;;;;;;;4.10;2.08;;;18.50;99.90;;;;;;5074337;28;20078;-87
2023/09/05 06:46:36;;;;;;;5.03;1.70;;;18.50;99.90;;;;;;5074852;28;20035;-81
2023/09/05 06:49:02;;;;;;;2.55;1.58;;;18.60;99.90;;;;;;5056101;28;20044;-81
2023/09/05 06:51:29;;;;;;;3.65;1.50;;;18.60;99.90;;;;;;5056381;28;20107;-81
2023/09/05 06:53:55;;;;;;;3.92;1.70;;;18.60;99.90;;;;;;5057041;28;20029;-81
2023/09/05 06:56:21;;;;;;;2.08;1.45;;;18.70;99.90;;;;;;5073724;28;20082;-81
2023/09/05 06:58:47;;;;;;;8.68;2.17;;;18.70;99.90;;;;;;5057026;28;20027;-81
2023/09/05 07:01:13;;;;;;;2.97;1.92;;;18.80;99.90;;;;;;5073752;28;20029;-81
2023/09/05 07:03:38;;;;;;;9.10;1.95;;;18.80;99.90;;;;;;5074479;28;20024;-81
2023/09/05 07:06:04;;;;;;;13.63;2.65;;;18.90;99.90;;;;;;5056673;28;20026;-81
2023/09/05 07:08:31;;;;;;;22.80;2.40;;;18.90;99.90;;;;;;5074025;28;20032;-81
2023/09/05 07:10:57;;;;;;;19.27;3.05;;;19.00;99.90;;;;;;5056526;28;20028;-81
2023/09/05 07:13:23;;;;;;;8.32;1.98;;;19.00;99.90;;;;;;5055896;28;20117;-81
2023/09/05 07:15:49;;;;;;;5.15;1.73;;;19.00;99.90;;;;;;5074481;28;20103;-81
2023/09/05 07:18:15;;;;;;;3.85;1.55;;;19.10;99.90;;;;;;5055741;28;20116;-81
2023/09/05 07:20:40;;;;;;;3.97;2.15;;;19.10;99.90;;;;;;5074430;28;20024;-81
2023/09/05 07:23:06;;;;;;;3.75;1.83;;;19.10;99.90;;;;;;5056524;28;20024;-81
2023/09/05 07:25:32;;;;;;;4.05;1.83;;;19.20;99.90;;;;;;5073870;28;20593;-81
2023/09/05 07:27:58;;;;;;;4.68;1.50;;;19.20;99.90;;;;;;5056382;28;20465;-81
2023/09/05 07:30:23;;;;;;;3.42;1.80;;;19.30;99.90;;;;;;5073696;28;20442;-81
2023/09/05 07:32:49;;;;;;;8.13;2.10;;;19.30;99.90;;;;;;5073871;28;20032;-81
2023/09/05 07:35:16;;;;;;;7.65;2.10;;;19.40;99.90;;;;;;5055750;28;20029;-82
2023/09/05 07:37:42;;;;;;;14.57;2.38;;;19.40;99.90;;;;;;5074009;28;20024;-80
2023/09/05 07:40:08;;;;;;;9.15;1.88;;;19.40;99.90;;;;;;5055675;28;20028;-81
2023/09/05 07:42:34;;;;;;;7.43;1.50;;;19.50;99.90;;;;;;5073821;28;20020;-80
2023/09/05 07:45:02;;;;;;;10.25;1.80;;;19.60;99.90;;;;;;5074046;28;20028;-81
2023/09/05 07:47:28;;;;;;;6.75;1.98;;;19.60;99.90;;;;;;5055756;28;20052;-81
2023/09/05 07:49:54;;;;;;;2.03;1.33;;;19.60;99.90;;;;;;5055960;28;20052;-81
2023/09/05 07:52:19;;;;;;;131.98;17.65;;;19.60;99.90;;;;;;5056139;28;20028;-82
2023/09/05 07:54:45;;;;;;;47.95;7.78;;;19.70;99.90;;;;;;5073828;28;20032;-81
2023/09/05 07:57:10;;;;;;;39.15;5.47;;;19.80;99.90;;;;;;5056541;28;20480;-84
2023/09/05 07:59:36;;;;;;;23.45;4.13;;;19.90;99.90;;;;;;5073902;28;20057;-81
2023/09/05 08:02:02;;;;;;;7.75;2.75;;;19.90;99.90;;;;;;5058979;28;20435;-81
2023/09/05 08:04:30;;;;;;;41.38;5.80;;;20.00;99.90;;;;;;5060053;28;20028;-81
2023/09/05 08:06:58;;;;;;;58.10;9.68;;;20.00;99.90;;;;;;5060454;28;20026;-81
2023/09/05 08:09:23;;;;;;;64.28;8.77;;;20.00;99.90;;;;;;5077191;28;20029;-81
2023/09/05 08:11:49;;;;;;;57.63;7.60;;;20.10;99.90;;;;;;5077403;28;20151;-81
2023/09/05 08:14:14;;;;;;;25.25;3.30;;;20.20;99.90;;;;;;5059312;28;20037;-88
2023/09/05 08:16:40;;;;;;;28.50;4.60;;;20.30;99.90;;;;;;5059536;28;20169;-81
2023/09/05 08:19:05;;;;;;;8.65;3.00;;;20.40;99.90;;;;;;5059850;28;20020;-81
2023/09/05 08:21:32;;;;;;;21.92;3.55;;;20.40;99.90;;;;;;5059167;28;20495;-81
2023/09/05 08:23:58;;;;;;;24.52;4.28;;;20.50;99.90;;;;;;5077580;28;20028;-81
2023/09/05 08:26:25;;;;;;;34.58;5.20;;;20.50;99.90;;;;;;5059742;28;20043;-82
2023/09/05 08:28:51;;;;;;;119.07;14.00;;;20.60;99.90;;;;;;5059900;28;20477;-81
2023/09/05 08:31:16;;;;;;;24.00;5.10;;;20.60;99.90;;;;;;5059514;28;20028;-82
2023/09/05 08:33:43;;;;;;;19.10;3.25;;;20.70;99.90;;;;;;5077302;28;20032;-81
2023/09/05 08:36:09;;;;;;;9.80;2.50;;;20.70;99.90;;;;;;5059665;28;20028;-81
2023/09/05 08:38:37;;;;;;;5.47;1.70;;;20.80;99.90;;;;;;5076594;28;20083;-81
2023/09/05 08:41:04;;;;;;;4.68;1.65;;;20.90;99.60;;;;;;5059632;28;20032;-81
2023/09/05 08:43:30;;;;;;;3.50;1.40;;;20.90;99.30;;;;;;5058567;28;20039;-79
2023/09/05 08:46:00;;;;;;;2.83;1.60;;;20.90;99.70;;;;;;5060318;28;20024;-80
2023/09/05 08:48:27;;;;;;;5.35;1.48;;;20.90;99.70;;;;;;5076564;28;20021;-80
2023/09/05 08:50:55;;;;;;;2.67;1.13;;;21.00;99.40;;;;;;5059207;28;20470;-81
2023/09/05 08:53:28;;;;;;;2.95;1.55;;;21.10;99.70;;;;;;5076501;28;20036;-81
2023/09/05 08:55:55;;;;;;;3.10;1.15;;;21.10;99.70;;;;;;5077135;28;20028;-81
2023/09/05 08:58:21;;;;;;;2.60;1.30;;;21.10;99.70;;;;;;5075961;28;20032;-81
2023/09/05 09:00:48;;;;;;;2.00;1.30;;;21.10;99.80;;;;;;5077115;28;20080;-81
2023/09/05 09:03:14;;;;;;;3.30;1.48;;;21.10;99.80;;;;;;5058738;28;20384;-80
2023/09/05 09:05:41;;;;;;;2.15;1.40;;;21.20;99.50;;;;;;5058800;28;20027;-81
2023/09/05 09:08:09;;;;;;;10.30;2.10;;;21.30;99.20;;;;;;5059074;28;20036;-81
2023/09/05 09:10:35;;;;;;;23.60;3.38;;;21.40;99.30;;;;;;5076115;28;20382;-82
2023/09/05 09:13:18;;;;;;;14.15;2.25;;;21.40;99.00;;;;;;5075441;28;20029;-81
2023/09/05 09:15:46;;;;;;;19.80;2.70;;;21.50;98.90;;;;;;5076457;28;20117;-81
2023/09/05 09:18:19;;;;;;;32.33;6.32;;;21.60;99.00;;;;;;5058709;28;20032;-81
2023/09/05 09:20:46;;;;;;;40.90;6.95;;;21.70;99.00;;;;;;5059013;28;20024;-81
2023/09/05 09:23:23;;;;;;;400.88;37.83;;;21.70;98.80;;;;;;5076569;28;20016;-81
2023/09/05 09:25:49;;;;;;;146.82;13.45;;;21.70;99.30;;;;;;5058748;28;20492;-81
2023/09/05 09:28:23;;;;;;;77.55;10.77;;;21.70;99.30;;;;;;5065907;28;20115;-82
2023/09/05 09:31:12;;;;;;;7.07;2.40;;;21.80;99.00;;;;;;5083220;28;20020;-82
2023/09/05 09:33:39;;;;;;;10.80;2.42;;;21.80;98.90;;;;;;5083688;28;20032;-82
2023/09/05 09:36:10;;;;;;;171.93;18.73;;;21.80;98.20;;;;;;5067143;28;20090;-83
2023/09/05 09:38:38;;;;;;;68.93;9.63;;;21.90;98.30;;;;;;5066607;28;20032;-82
2023/09/05 09:41:06;;;;;;;43.90;6.25;;;22.00;99.20;;;;;;5083845;28;20492;-82
2023/09/05 09:43:32;;;;;;;31.80;5.38;;;22.00;99.10;;;;;;5082392;28;20039;-85
2023/09/05 09:45:59;;;;;;;32.97;5.10;;;22.00;99.30;;;;;;5066338;28;20024;-83
2023/09/05 09:48:27;;;;;;;25.35;4.47;;;22.10;98.60;;;;;;5067714;28;20024;-83
2023/09/05 09:50:57;;;;;;;48.95;6.88;;;22.20;98.60;;;;;;5085899;28;20025;-83
2023/09/05 09:53:30;;;;;;;26.42;5.07;;;22.30;98.40;;;;;;5067180;28;20131;-85
2023/09/05 09:55:57;;;;;;;48.88;6.05;;;22.30;98.90;;;;;;5068061;28;20355;-83
2023/09/05 09:58:25;;;;;;;40.05;5.65;;;22.30;99.00;;;;;;5056362;28;20050;-85
2023/09/05 10:00:51;;;;;;;69.95;7.13;;;22.30;98.70;;;;;;5087610;28;20028;-83
2023/09/05 10:03:18;;;;;;;51.50;5.97;;;22.40;98.70;;;;;;5065898;28;20029;-85
2023/09/05 10:05:45;;;;;;;66.93;7.03;;;22.50;99.10;;;;;;5067406;28;20024;-83
2023/09/05 10:08:12;;;;;;;11.30;2.20;;;22.60;98.50;;;;;;5084902;28;20151;-83
2023/09/05 10:10:41;;;;;;;3.78;1.60;;;22.60;97.60;;;;;;5066011;28;20030;-84
2023/09/05 10:13:11;;;;;;;7.32;1.75;;;22.70;98.30;;;;;;5065231;28;20028;-84
2023/09/05 10:15:38;;;;;;;12.32;1.60;;;22.80;97.70;;;;;;5082951;28;20073;-84
2023/09/05 10:18:07;;;;;;;12.52;1.60;;;22.90;98.00;;;;;;5084126;28;20028;-81
2023/09/05 10:20:34;;;;;;;4.97;1.58;;;22.90;98.00;;;;;;5064841;28;20082;-83
2023/09/05 10:23:00;;;;;;;5.50;1.58;;;22.90;98.00;;;;;;5066060;28;20024;-84
2023/09/05 10:25:27;;;;;;;4.07;1.25;;;23.00;97.00;;;;;;5083338;28;20129;-83
2023/09/05 10:27:53;;;;;;;3.65;1.50;;;23.10;97.30;;;;;;5065958;28;20028;-83
2023/09/05 10:30:19;;;;;;;2.50;1.58;;;23.20;97.40;;;;;;5066701;28;20031;-82
2023/09/05 10:32:47;;;;;;;19.08;2.58;;;23.20;97.00;;;;;;5082099;28;20106;-83
2023/09/05 10:35:18;;;;;;;76.38;7.40;;;23.20;97.00;;;;;;5066219;28;20032;-83
2023/09/05 10:37:55;;;;;;;46.03;5.38;;;23.20;96.40;;;;;;5083102;28;20073;-83
2023/09/05 10:40:33;;;;;;;37.85;5.40;;;23.20;97.10;;;;;;5065388;28;20122;-85
2023/09/05 10:43:02;;;;;;;20.58;2.70;;;23.30;96.60;;;;;;5082531;28;20042;-83
2023/09/05 10:45:31;;;;;;;19.42;2.50;;;23.30;96.20;;;;;;5084235;28;20025;-83
2023/09/05 10:48:11;;;;;;;5.15;1.45;;;23.40;96.80;;;;;;5081813;28;20099;-86
2023/09/05 10:51:11;;;;;;;6.75;1.73;;;23.40;96.00;;;;;;5063421;28;20132;-83
2023/09/05 10:53:46;;;;;;;5.82;1.80;;;23.50;95.80;;;;;;5065647;28;20037;-83
2023/09/05 10:56:40;;;;;;;3.45;1.15;;;23.50;95.50;;;;;;5065360;28;20020;-84
2023/09/05 10:59:10;;;;;;;2.70;1.48;;;23.60;96.10;;;;;;5065364;28;20029;-83
2023/09/05 11:01:43;;;;;;;3.50;1.30;;;23.60;95.70;;;;;;5082498;28;20020;-83
2023/09/05 11:04:17;;;;;;;2.17;1.40;;;23.60;96.10;;;;;;5065910;28;20028;-83
2023/09/05 11:06:54;;;;;;;2.60;1.08;;;23.60;95.60;;;;;;5079163;28;20469;-84
2023/09/05 11:09:19;;;;;;;2.72;1.30;;;23.70;95.30;;;;;;5066161;28;20028;-83
2023/09/05 11:11:45;;;;;;;4.13;1.30;;;23.70;95.90;;;;;;5082479;28;20031;-83
2023/09/05 11:14:11;;;;;;;4.15;1.30;;;23.90;96.20;;;;;;5065233;28;20435;-83
2023/09/05 11:16:49;;;;;;;2.10;1.30;;;23.80;95.80;;;;;;5065862;28;20070;-88
2023/09/05 11:19:42;;;;;;;2.55;1.20;;;23.90;95.50;;;;;;5064250;28;20032;-83
2023/09/05 11:22:11;;;;;;;2.40;1.20;;;24.10;95.30;;;;;;5081196;28;20146;-83
2023/09/05 11:24:45;;;;;;;2.65;1.10;;;24.20;94.90;;;;;;5064999;28;20035;-88
2023/09/05 11:27:11;;;;;;;9.57;2.70;;;24.30;94.40;;;;;;5065034;28;20078;-83
2023/09/05 11:29:39;;;;;;;4.65;1.40;;;24.40;94.50;;;;;;5083420;28;20028;-84
2023/09/05 11:32:06;;;;;;;13.82;1.55;;;24.50;94.40;;;;;;5066226;28;20445;-83
2023/09/05 11:34:33;;;;;;;4.85;1.42;;;24.50;94.20;;;;;;5064424;28;20036;-85
2023/09/05 11:37:00;;;;;;;10.40;1.83;;;24.60;94.30;;;;;;5065667;28;20444;-83
2023/09/05 11:39:29;;;;;;;8.23;1.88;;;24.80;93.30;;;;;;5080174;28;20028;-84
2023/09/05 11:41:58;;;;;;;5.18;1.40;;;24.80;93.30;;;;;;5081952;28;20032;-83
2023/09/05 11:44:31;;;;;;;5.35;1.40;;;24.90;93.80;;;;;;5064866;28;20021;-83
2023/09/05 11:46:58;;;;;;;4.50;1.40;;;25.00;93.60;;;;;;5065759;28;20028;-86
2023/09/05 11:49:23;;;;;;;2.05;1.13;;;25.00;93.10;;;;;;5051190;28;20049;-84
2023/09/05 11:51:49;;;;;;;7.50;1.60;;;25.00;93.20;;;;;;5041275;28;20021;-83
2023/09/05 11:54:15;;;;;;;4.32;1.10;;;25.10;93.20;;;;;;5041931;28;20557;-84
2023/09/05 11:56:41;;;;;;;3.33;1.45;;;25.20;92.50;;;;;;5041253;28;20539;-83
2023/09/05 11:59:07;;;;;;;6.88;1.20;;;25.40;93.10;;;;;;5041251;28;20096;-84
2023/09/05 12:01:32;;;;;;;9.48;3.00;;;25.50;92.00;;;;;;5039167;28;20108;-84
2023/09/05 12:04:06;;;;;;;4.00;1.20;;;25.50;91.90;;;;;;5041825;28;20030;-83
2023/09/05 12:06:35;;;;;;;5.43;1.75;;;25.60;91.40;;;;;;5040668;28;20382;-83
2023/09/05 12:09:01;;;;;;;4.97;1.50;;;25.60;92.70;;;;;;5041407;28;20116;-86
2023/09/05 12:11:27;;;;;;;3.35;1.40;;;25.60;93.00;;;;;;5042885;28;20029;-86
2023/09/05 12:13:57;;;;;;;6.30;1.55;;;25.70;91.90;;;;;;5041108;28;20037;-86
2023/09/05 12:16:23;;;;;;;2.28;1.05;;;25.90;91.60;;;;;;5043012;28;20025;-84
2023/09/05 12:19:00;;;;;;;2.45;1.10;;;25.90;91.40;;;;;;5041637;28;20025;-82
2023/09/05 12:21:39;;;;;;;5.28;1.40;;;26.00;92.00;;;;;;5041448;28;20107;-84
2023/09/05 12:24:17;;;;;;;6.70;1.70;;;26.10;91.80;;;;;;5040782;28;20032;-84
2023/09/05 12:26:43;;;;;;;8.05;2.13;;;26.20;91.70;;;;;;5042343;28;20451;-84
2023/09/05 12:29:08;;;;;;;3.83;0.95;;;26.30;90.70;;;;;;5040836;28;20028;-84
2023/09/05 12:31:36;;;;;;;2.78;1.10;;;26.40;90.40;;;;;;5040634;28;20064;-84
2023/09/05 12:34:01;;;;;;;2.15;0.80;;;26.40;90.10;;;;;;5041733;28;20064;-84
2023/09/05 12:36:29;;;;;;;4.55;1.00;;;26.60;89.50;;;;;;5041505;28;20450;-84
2023/09/05 12:38:55;;;;;;;2.08;0.93;;;26.70;88.60;;;;;;5043811;28;20029;-84
2023/09/05 12:41:20;;;;;;;1.55;0.77;;;26.70;89.50;;;;;;5044976;28;20040;-83
2023/09/05 12:43:46;;;;;;;3.47;0.95;;;26.80;88.50;;;;;;5044577;28;20033;-84
2023/09/05 12:46:12;;;;;;;4.38;1.10;;;27.00;87.70;;;;;;5048659;28;20025;-86